Terminal Aerodrome Forecast
Issued by NWS Los Angeles, CA

Home | Current Version | Previous Version | Text Only | Print | Product List | Glossary On
Versions: 1 2 3 4 5 6 7 8 9 10 11 12 13 14 15 16 17 18 19 20 21 22
000
FTUS46 KLOX 231700
TAFSMX
TAF
KSMX 231729Z 2318/2418 31006KT P6SM SCT010
     FM232000 31012KT P6SM SKC
     FM240300 VRB03KT P6SM SKC
     FM240600 VRB03KT 5SM BR OVC005
     FM240900 VRB03KT 3SM BR OVC003
     FM241600 VRB03KT 6SM BR OVC005=

USA.gov is the U.S. government's official web portal to all federal, state and local government web resources and services.